sensor_id;sensor_type;location;lat;lon;timestamp;P1;durP1;ratioP1;P2;durP2;ratioP2
54899;SDS011;40801;41.924;25.562;2022-07-29T00:02:09;16.92;;;15.63;;
54899;SDS011;40801;41.924;25.562;2022-07-29T00:04:35;15.75;;;14.55;;
54899;SDS011;40801;41.924;25.562;2022-07-29T00:07:01;16.67;;;15.43;;
54899;SDS011;40801;41.924;25.562;2022-07-29T00:09:27;17.02;;;15.63;;
54899;SDS011;40801;41.924;25.562;2022-07-29T00:11:53;16.63;;;15.52;;
54899;SDS011;40801;41.924;25.562;2022-07-29T00:14:21;16.45;;;15.25;;
54899;SDS011;40801;41.924;25.562;2022-07-29T00:16:47;14.93;;;13.45;;
54899;SDS011;40801;41.924;25.562;2022-07-29T00:19:12;16.17;;;14.90;;
54899;SDS011;40801;41.924;25.562;2022-07-29T00:21:38;15.50;;;14.48;;
54899;SDS011;40801;41.924;25.562;2022-07-29T00:24:03;15.50;;;14.48;;
54899;SDS011;40801;41.924;25.562;2022-07-29T00:26:29;15.38;;;14.30;;
54899;SDS011;40801;41.924;25.562;2022-07-29T00:28:57;14.60;;;13.70;;
54899;SDS011;40801;41.924;25.562;2022-07-29T00:31:26;14.93;;;13.93;;
54899;SDS011;40801;41.924;25.562;2022-07-29T00:33:52;15.98;;;14.93;;
54899;SDS011;40801;41.924;25.562;2022-07-29T00:36:18;15.93;;;14.80;;
54899;SDS011;40801;41.924;25.562;2022-07-29T00:38:45;19.02;;;17.73;;
54899;SDS011;40801;41.924;25.562;2022-07-29T00:41:12;19.85;;;18.13;;
54899;SDS011;40801;41.924;25.562;2022-07-29T00:43:37;20.42;;;18.75;;
54899;SDS011;40801;41.924;25.562;2022-07-29T00:46:03;20.35;;;18.65;;
54899;SDS011;40801;41.924;25.562;2022-07-29T00:48:28;20.52;;;19.00;;
54899;SDS011;40801;41.924;25.562;2022-07-29T00:50:54;24.77;;;22.48;;
54899;SDS011;40801;41.924;25.562;2022-07-29T00:53:22;25.00;;;23.05;;
54899;SDS011;40801;41.924;25.562;2022-07-29T00:55:48;25.67;;;23.60;;
54899;SDS011;40801;41.924;25.562;2022-07-29T00:58:13;25.15;;;23.13;;
54899;SDS011;40801;41.924;25.562;2022-07-29T01:00:39;28.15;;;25.85;;
54899;SDS011;40801;41.924;25.562;2022-07-29T01:03:06;26.02;;;23.92;;
54899;SDS011;40801;41.924;25.562;2022-07-29T01:05:32;22.77;;;21.08;;
54899;SDS011;40801;41.924;25.562;2022-07-29T01:07:58;18.67;;;17.27;;
54899;SDS011;40801;41.924;25.562;2022-07-29T01:10:24;15.15;;;14.35;;
54899;SDS011;40801;41.924;25.562;2022-07-29T01:12:51;16.77;;;15.57;;
54899;SDS011;40801;41.924;25.562;2022-07-29T01:15:19;16.13;;;14.88;;
54899;SDS011;40801;41.924;25.562;2022-07-29T01:17:48;15.27;;;14.27;;
54899;SDS011;40801;41.924;25.562;2022-07-29T01:26:02;16.90;;;15.65;;
54899;SDS011;40801;41.924;25.562;2022-07-29T01:28:52;15.15;;;13.73;;
54899;SDS011;40801;41.924;25.562;2022-07-29T01:31:28;16.63;;;15.30;;
54899;SDS011;40801;41.924;25.562;2022-07-29T01:34:01;14.77;;;13.48;;
54899;SDS011;40801;41.924;25.562;2022-07-29T01:41:38;18.90;;;17.70;;
54899;SDS011;40801;41.924;25.562;2022-07-29T01:44:15;14.02;;;13.05;;
54899;SDS011;40801;41.924;25.562;2022-07-29T01:46:56;14.52;;;13.63;;
54899;SDS011;40801;41.924;25.562;2022-07-29T01:49:26;18.38;;;17.15;;
54899;SDS011;40801;41.924;25.562;2022-07-29T01:51:57;26.52;;;24.33;;
54899;SDS011;40801;41.924;25.562;2022-07-29T01:54:30;39.75;;;36.05;;
54899;SDS011;40801;41.924;25.562;2022-07-29T01:57:00;36.95;;;33.80;;
54899;SDS011;40801;41.924;25.562;2022-07-29T01:59:28;28.10;;;25.77;;
54899;SDS011;40801;41.924;25.562;2022-07-29T02:01:56;23.08;;;21.13;;
54899;SDS011;40801;41.924;25.562;2022-07-29T02:04:23;21.98;;;20.38;;
54899;SDS011;40801;41.924;25.562;2022-07-29T02:06:51;19.67;;;18.27;;
54899;SDS011;40801;41.924;25.562;2022-07-29T02:09:17;16.02;;;14.75;;
54899;SDS011;40801;41.924;25.562;2022-07-29T02:11:47;20.10;;;18.50;;
54899;SDS011;40801;41.924;25.562;2022-07-29T02:14:18;15.23;;;14.23;;
54899;SDS011;40801;41.924;25.562;2022-07-29T02:16:45;14.88;;;14.00;;
54899;SDS011;40801;41.924;25.562;2022-07-29T02:19:12;15.95;;;14.98;;
54899;SDS011;40801;41.924;25.562;2022-07-29T02:21:38;16.00;;;15.00;;
54899;SDS011;40801;41.924;25.562;2022-07-29T02:24:05;14.55;;;13.63;;
54899;SDS011;40801;41.924;25.562;2022-07-29T02:26:33;15.70;;;14.70;;
54899;SDS011;40801;41.924;25.562;2022-07-29T02:28:59;14.18;;;13.27;;
54899;SDS011;40801;41.924;25.562;2022-07-29T02:31:27;14.23;;;13.38;;
54899;SDS011;40801;41.924;25.562;2022-07-29T02:33:57;15.38;;;14.45;;
54899;SDS011;40801;41.924;25.562;2022-07-29T02:36:24;15.07;;;14.10;;
54899;SDS011;40801;41.924;25.562;2022-07-29T02:38:52;14.45;;;13.70;;
54899;SDS011;40801;41.924;25.562;2022-07-29T02:41:22;14.35;;;13.55;;
54899;SDS011;40801;41.924;25.562;2022-07-29T02:43:53;16.98;;;16.08;;
54899;SDS011;40801;41.924;25.562;2022-07-29T02:46:21;15.63;;;14.82;;
54899;SDS011;40801;41.924;25.562;2022-07-29T02:49:15;15.55;;;14.63;;
54899;SDS011;40801;41.924;25.562;2022-07-29T02:51:51;13.30;;;12.65;;
54899;SDS011;40801;41.924;25.562;2022-07-29T02:54:22;14.88;;;13.82;;
54899;SDS011;40801;41.924;25.562;2022-07-29T02:56:53;14.48;;;13.48;;
54899;SDS011;40801;41.924;25.562;2022-07-29T02:59:23;15.13;;;14.00;;
54899;SDS011;40801;41.924;25.562;2022-07-29T03:01:52;15.43;;;14.43;;
54899;SDS011;40801;41.924;25.562;2022-07-29T03:04:20;17.02;;;16.02;;
54899;SDS011;40801;41.924;25.562;2022-07-29T03:09:15;15.52;;;14.73;;
54899;SDS011;40801;41.924;25.562;2022-07-29T03:11:42;15.02;;;14.23;;
54899;SDS011;40801;41.924;25.562;2022-07-29T03:14:09;14.27;;;13.38;;
54899;SDS011;40801;41.924;25.562;2022-07-29T03:16:35;16.73;;;15.65;;
54899;SDS011;40801;41.924;25.562;2022-07-29T03:19:01;16.02;;;15.02;;
54899;SDS011;40801;41.924;25.562;2022-07-29T03:21:27;13.30;;;12.20;;
54899;SDS011;40801;41.924;25.562;2022-07-29T03:23:53;14.38;;;13.57;;
54899;SDS011;40801;41.924;25.562;2022-07-29T03:26:18;16.40;;;15.32;;
54899;SDS011;40801;41.924;25.562;2022-07-29T03:28:44;15.52;;;14.52;;
54899;SDS011;40801;41.924;25.562;2022-07-29T03:31:09;14.80;;;13.80;;
54899;SDS011;40801;41.924;25.562;2022-07-29T03:33:34;15.00;;;14.02;;
54899;SDS011;40801;41.924;25.562;2022-07-29T03:36:00;14.70;;;13.90;;
54899;SDS011;40801;41.924;25.562;2022-07-29T03:38:27;17.00;;;16.08;;
54899;SDS011;40801;41.924;25.562;2022-07-29T03:41:28;15.20;;;14.40;;
54899;SDS011;40801;41.924;25.562;2022-07-29T03:43:47;16.42;;;15.38;;
54899;SDS011;40801;41.924;25.562;2022-07-29T03:46:16;14.30;;;13.50;;
54899;SDS011;40801;41.924;25.562;2022-07-29T03:48:46;15.75;;;14.88;;
54899;SDS011;40801;41.924;25.562;2022-07-29T03:51:15;13.43;;;12.30;;
54899;SDS011;40801;41.924;25.562;2022-07-29T03:53:40;15.57;;;14.68;;
54899;SDS011;40801;41.924;25.562;2022-07-29T03:56:06;14.70;;;13.90;;
54899;SDS011;40801;41.924;25.562;2022-07-29T03:58:34;14.70;;;13.68;;
54899;SDS011;40801;41.924;25.562;2022-07-29T04:01:00;14.48;;;13.68;;
54899;SDS011;40801;41.924;25.562;2022-07-29T04:03:26;17.95;;;16.75;;
54899;SDS011;40801;41.924;25.562;2022-07-29T04:05:59;17.00;;;15.90;;
54899;SDS011;40801;41.924;25.562;2022-07-29T04:08:25;16.10;;;14.90;;
54899;SDS011;40801;41.924;25.562;2022-07-29T04:10:50;15.27;;;14.20;;
54899;SDS011;40801;41.924;25.562;2022-07-29T04:13:17;16.13;;;14.98;;
54899;SDS011;40801;41.924;25.562;2022-07-29T04:15:44;15.63;;;14.73;;
54899;SDS011;40801;41.924;25.562;2022-07-29T04:18:09;17.42;;;16.38;;
54899;SDS011;40801;41.924;25.562;2022-07-29T04:20:34;14.95;;;14.07;;
54899;SDS011;40801;41.924;25.562;2022-07-29T04:23:00;12.93;;;11.98;;
54899;SDS011;40801;41.924;25.562;2022-07-29T04:25:25;16.90;;;15.90;;
54899;SDS011;40801;41.924;25.562;2022-07-29T04:27:50;15.57;;;14.77;;
54899;SDS011;40801;41.924;25.562;2022-07-29T04:30:25;15.93;;;14.77;;
54899;SDS011;40801;41.924;25.562;2022-07-29T04:32:50;15.90;;;14.90;;
54899;SDS011;40801;41.924;25.562;2022-07-29T04:35:16;15.15;;;14.15;;
54899;SDS011;40801;41.924;25.562;2022-07-29T04:37:41;14.65;;;13.88;;
54899;SDS011;40801;41.924;25.562;2022-07-29T04:40:06;15.32;;;14.38;;
54899;SDS011;40801;41.924;25.562;2022-07-29T04:42:32;14.40;;;13.40;;
54899;SDS011;40801;41.924;25.562;2022-07-29T04:44:58;15.25;;;14.30;;
54899;SDS011;40801;41.924;25.562;2022-07-29T04:47:23;12.60;;;11.75;;
54899;SDS011;40801;41.924;25.562;2022-07-29T04:49:48;15.32;;;14.38;;
54899;SDS011;40801;41.924;25.562;2022-07-29T04:52:14;15.07;;;14.00;;
54899;SDS011;40801;41.924;25.562;2022-07-29T04:54:39;10.93;;;10.02;;
54899;SDS011;40801;41.924;25.562;2022-07-29T04:57:04;10.48;;;9.77;;
54899;SDS011;40801;41.924;25.562;2022-07-29T04:59:30;13.43;;;12.73;;
54899;SDS011;40801;41.924;25.562;2022-07-29T05:01:55;13.65;;;13.00;;
54899;SDS011;40801;41.924;25.562;2022-07-29T05:04:20;14.52;;;13.55;;
54899;SDS011;40801;41.924;25.562;2022-07-29T05:06:46;15.35;;;14.55;;
54899;SDS011;40801;41.924;25.562;2022-07-29T05:09:11;10.63;;;9.93;;
54899;SDS011;40801;41.924;25.562;2022-07-29T05:11:37;13.75;;;12.38;;
54899;SDS011;40801;41.924;25.562;2022-07-29T05:14:02;12.50;;;11.63;;
54899;SDS011;40801;41.924;25.562;2022-07-29T05:16:28;108.72;;;24.20;;
54899;SDS011;40801;41.924;25.562;2022-07-29T05:18:53;11.65;;;10.57;;
54899;SDS011;40801;41.924;25.562;2022-07-29T05:21:18;14.27;;;13.32;;
54899;SDS011;40801;41.924;25.562;2022-07-29T05:23:44;12.80;;;12.00;;
54899;SDS011;40801;41.924;25.562;2022-07-29T05:26:09;12.30;;;11.50;;
54899;SDS011;40801;41.924;25.562;2022-07-29T05:28:34;13.02;;;12.25;;
54899;SDS011;40801;41.924;25.562;2022-07-29T05:31:00;11.73;;;10.93;;
54899;SDS011;40801;41.924;25.562;2022-07-29T05:33:25;11.43;;;10.63;;
54899;SDS011;40801;41.924;25.562;2022-07-29T05:35:51;12.02;;;11.43;;
54899;SDS011;40801;41.924;25.562;2022-07-29T05:38:16;12.23;;;11.50;;
54899;SDS011;40801;41.924;25.562;2022-07-29T05:40:41;11.75;;;11.05;;
54899;SDS011;40801;41.924;25.562;2022-07-29T05:43:07;11.27;;;10.57;;
54899;SDS011;40801;41.924;25.562;2022-07-29T05:45:33;12.93;;;11.98;;
54899;SDS011;40801;41.924;25.562;2022-07-29T05:47:58;12.40;;;11.57;;
54899;SDS011;40801;41.924;25.562;2022-07-29T05:50:23;10.88;;;10.27;;
54899;SDS011;40801;41.924;25.562;2022-07-29T05:52:49;9.88;;;9.07;;
54899;SDS011;40801;41.924;25.562;2022-07-29T05:55:15;12.48;;;11.50;;
54899;SDS011;40801;41.924;25.562;2022-07-29T05:57:40;24.20;;;14.60;;
54899;SDS011;40801;41.924;25.562;2022-07-29T06:00:05;13.65;;;12.32;;
54899;SDS011;40801;41.924;25.562;2022-07-29T06:02:31;11.65;;;10.85;;
54899;SDS011;40801;41.924;25.562;2022-07-29T06:04:57;10.82;;;10.13;;
54899;SDS011;40801;41.924;25.562;2022-07-29T06:07:22;11.02;;;10.43;;
54899;SDS011;40801;41.924;25.562;2022-07-29T06:09:47;11.88;;;11.07;;
54899;SDS011;40801;41.924;25.562;2022-07-29T06:12:13;12.73;;;11.90;;
54899;SDS011;40801;41.924;25.562;2022-07-29T06:14:39;11.52;;;10.93;;
54899;SDS011;40801;41.924;25.562;2022-07-29T06:17:05;11.77;;;10.95;;
54899;SDS011;40801;41.924;25.562;2022-07-29T06:19:30;11.43;;;10.82;;
54899;SDS011;40801;41.924;25.562;2022-07-29T06:21:56;12.73;;;11.82;;
54899;SDS011;40801;41.924;25.562;2022-07-29T06:24:21;12.93;;;12.10;;
54899;SDS011;40801;41.924;25.562;2022-07-29T06:26:46;12.57;;;11.75;;
54899;SDS011;40801;41.924;25.562;2022-07-29T06:29:12;12.88;;;12.27;;
54899;SDS011;40801;41.924;25.562;2022-07-29T06:31:37;11.82;;;11.25;;
54899;SDS011;40801;41.924;25.562;2022-07-29T06:34:03;12.05;;;11.35;;
54899;SDS011;40801;41.924;25.562;2022-07-29T06:36:29;11.05;;;10.25;;
54899;SDS011;40801;41.924;25.562;2022-07-29T06:38:55;11.82;;;11.02;;
54899;SDS011;40801;41.924;25.562;2022-07-29T06:41:20;11.48;;;10.75;;
54899;SDS011;40801;41.924;25.562;2022-07-29T06:43:46;10.73;;;10.20;;
54899;SDS011;40801;41.924;25.562;2022-07-29T06:46:12;12.63;;;12.02;;
54899;SDS011;40801;41.924;25.562;2022-07-29T06:48:39;12.67;;;11.20;;
54899;SDS011;40801;41.924;25.562;2022-07-29T06:51:07;12.30;;;11.45;;
54899;SDS011;40801;41.924;25.562;2022-07-29T06:53:33;10.55;;;10.00;;
54899;SDS011;40801;41.924;25.562;2022-07-29T06:56:00;10.70;;;8.55;;
54899;SDS011;40801;41.924;25.562;2022-07-29T06:58:27;10.55;;;9.95;;
54899;SDS011;40801;41.924;25.562;2022-07-29T07:00:53;12.27;;;11.18;;
54899;SDS011;40801;41.924;25.562;2022-07-29T07:03:18;10.85;;;10.25;;
54899;SDS011;40801;41.924;25.562;2022-07-29T07:05:44;9.65;;;8.93;;
54899;SDS011;40801;41.924;25.562;2022-07-29T07:08:10;10.88;;;10.13;;
54899;SDS011;40801;41.924;25.562;2022-07-29T07:10:37;10.70;;;10.10;;
54899;SDS011;40801;41.924;25.562;2022-07-29T07:13:02;8.52;;;7.82;;
54899;SDS011;40801;41.924;25.562;2022-07-29T07:15:28;9.35;;;8.75;;
54899;SDS011;40801;41.924;25.562;2022-07-29T07:17:53;11.23;;;10.52;;
54899;SDS011;40801;41.924;25.562;2022-07-29T07:20:19;10.85;;;10.35;;
54899;SDS011;40801;41.924;25.562;2022-07-29T07:22:44;17.08;;;15.90;;
54899;SDS011;40801;41.924;25.562;2022-07-29T07:25:10;11.32;;;10.73;;
54899;SDS011;40801;41.924;25.562;2022-07-29T07:27:36;10.30;;;9.60;;
54899;SDS011;40801;41.924;25.562;2022-07-29T07:30:02;11.00;;;10.38;;
54899;SDS011;40801;41.924;25.562;2022-07-29T07:32:30;10.05;;;9.32;;
54899;SDS011;40801;41.924;25.562;2022-07-29T07:34:56;10.50;;;9.90;;
54899;SDS011;40801;41.924;25.562;2022-07-29T07:37:22;11.13;;;10.52;;
54899;SDS011;40801;41.924;25.562;2022-07-29T07:39:49;9.07;;;8.43;;
54899;SDS011;40801;41.924;25.562;2022-07-29T07:42:15;10.55;;;10.05;;
54899;SDS011;40801;41.924;25.562;2022-07-29T07:44:40;11.35;;;10.70;;
54899;SDS011;40801;41.924;25.562;2022-07-29T07:47:06;15.30;;;14.30;;
54899;SDS011;40801;41.924;25.562;2022-07-29T07:49:31;9.80;;;9.30;;
54899;SDS011;40801;41.924;25.562;2022-07-29T07:51:56;10.05;;;9.45;;
54899;SDS011;40801;41.924;25.562;2022-07-29T07:54:22;10.38;;;9.50;;
54899;SDS011;40801;41.924;25.562;2022-07-29T07:56:48;9.35;;;8.95;;
54899;SDS011;40801;41.924;25.562;2022-07-29T07:59:14;11.32;;;10.55;;
54899;SDS011;40801;41.924;25.562;2022-07-29T08:01:40;10.27;;;9.48;;
54899;SDS011;40801;41.924;25.562;2022-07-29T08:04:06;14.30;;;13.23;;
54899;SDS011;40801;41.924;25.562;2022-07-29T08:06:32;10.80;;;10.15;;
54899;SDS011;40801;41.924;25.562;2022-07-29T08:08:59;11.63;;;10.80;;
54899;SDS011;40801;41.924;25.562;2022-07-29T08:11:25;7.15;;;6.65;;
54899;SDS011;40801;41.924;25.562;2022-07-29T08:13:51;11.65;;;10.85;;
54899;SDS011;40801;41.924;25.562;2022-07-29T08:16:17;10.13;;;9.63;;
54899;SDS011;40801;41.924;25.562;2022-07-29T08:18:42;10.00;;;9.45;;
54899;SDS011;40801;41.924;25.562;2022-07-29T08:21:09;9.10;;;8.27;;
54899;SDS011;40801;41.924;25.562;2022-07-29T08:23:35;10.35;;;9.75;;
54899;SDS011;40801;41.924;25.562;2022-07-29T08:26:08;6.32;;;5.93;;
54899;SDS011;40801;41.924;25.562;2022-07-29T08:28:43;9.40;;;8.98;;
54899;SDS011;40801;41.924;25.562;2022-07-29T08:31:14;7.82;;;7.53;;
54899;SDS011;40801;41.924;25.562;2022-07-29T08:33:40;10.48;;;9.80;;
54899;SDS011;40801;41.924;25.562;2022-07-29T08:36:06;10.75;;;10.15;;
54899;SDS011;40801;41.924;25.562;2022-07-29T08:38:32;10.73;;;10.05;;
54899;SDS011;40801;41.924;25.562;2022-07-29T08:40:58;9.05;;;8.63;;
54899;SDS011;40801;41.924;25.562;2022-07-29T08:43:25;9.02;;;8.40;;
54899;SDS011;40801;41.924;25.562;2022-07-29T08:45:52;9.10;;;8.60;;
54899;SDS011;40801;41.924;25.562;2022-07-29T08:48:19;9.05;;;8.27;;
54899;SDS011;40801;41.924;25.562;2022-07-29T08:50:47;8.70;;;8.25;;
54899;SDS011;40801;41.924;25.562;2022-07-29T08:55:45;10.40;;;9.80;;
54899;SDS011;40801;41.924;25.562;2022-07-29T08:58:11;7.63;;;7.13;;
54899;SDS011;40801;41.924;25.562;2022-07-29T09:00:41;9.50;;;8.88;;
54899;SDS011;40801;41.924;25.562;2022-07-29T09:03:09;9.68;;;9.00;;
54899;SDS011;40801;41.924;25.562;2022-07-29T09:05:37;9.57;;;8.68;;
54899;SDS011;40801;41.924;25.562;2022-07-29T09:08:07;8.82;;;8.32;;
54899;SDS011;40801;41.924;25.562;2022-07-29T09:10:34;8.70;;;8.10;;
54899;SDS011;40801;41.924;25.562;2022-07-29T09:13:00;8.73;;;8.27;;
54899;SDS011;40801;41.924;25.562;2022-07-29T09:15:25;9.13;;;8.48;;
54899;SDS011;40801;41.924;25.562;2022-07-29T09:17:51;8.35;;;8.05;;
54899;SDS011;40801;41.924;25.562;2022-07-29T09:20:17;7.75;;;7.07;;
54899;SDS011;40801;41.924;25.562;2022-07-29T09:22:45;9.05;;;8.55;;
54899;SDS011;40801;41.924;25.562;2022-07-29T09:25:37;7.85;;;7.18;;
54899;SDS011;40801;41.924;25.562;2022-07-29T09:28:15;9.52;;;9.02;;
54899;SDS011;40801;41.924;25.562;2022-07-29T09:30:54;9.32;;;8.82;;
54899;SDS011;40801;41.924;25.562;2022-07-29T09:33:21;10.45;;;9.77;;
54899;SDS011;40801;41.924;25.562;2022-07-29T09:36:07;9.70;;;9.10;;
54899;SDS011;40801;41.924;25.562;2022-07-29T09:38:34;12.48;;;11.60;;
54899;SDS011;40801;41.924;25.562;2022-07-29T09:41:02;10.18;;;9.65;;
54899;SDS011;40801;41.924;25.562;2022-07-29T09:43:28;9.52;;;8.88;;
54899;SDS011;40801;41.924;25.562;2022-07-29T09:45:53;9.75;;;9.05;;
54899;SDS011;40801;41.924;25.562;2022-07-29T09:48:20;12.23;;;11.52;;
54899;SDS011;40801;41.924;25.562;2022-07-29T09:50:48;7.90;;;7.18;;
54899;SDS011;40801;41.924;25.562;2022-07-29T09:53:56;9.32;;;8.73;;
54899;SDS011;40801;41.924;25.562;2022-07-29T09:56:04;10.20;;;9.60;;
54899;SDS011;40801;41.924;25.562;2022-07-29T09:58:30;8.77;;;8.23;;
54899;SDS011;40801;41.924;25.562;2022-07-29T10:00:58;9.02;;;8.48;;
54899;SDS011;40801;41.924;25.562;2022-07-29T10:03:24;9.00;;;8.40;;
54899;SDS011;40801;41.924;25.562;2022-07-29T10:08:31;7.03;;;6.55;;
54899;SDS011;40801;41.924;25.562;2022-07-29T10:11:11;9.60;;;9.07;;
54899;SDS011;40801;41.924;25.562;2022-07-29T10:13:40;9.13;;;8.63;;
54899;SDS011;40801;41.924;25.562;2022-07-29T10:16:07;8.45;;;7.88;;
54899;SDS011;40801;41.924;25.562;2022-07-29T10:18:33;9.55;;;9.05;;
54899;SDS011;40801;41.924;25.562;2022-07-29T10:20:59;8.50;;;8.00;;
54899;SDS011;40801;41.924;25.562;2022-07-29T10:23:26;6.28;;;5.57;;
54899;SDS011;40801;41.924;25.562;2022-07-29T10:25:53;8.95;;;8.55;;
54899;SDS011;40801;41.924;25.562;2022-07-29T10:28:19;7.45;;;7.10;;
54899;SDS011;40801;41.924;25.562;2022-07-29T10:30:45;8.95;;;8.35;;
54899;SDS011;40801;41.924;25.562;2022-07-29T10:42:14;8.25;;;7.75;;
54899;SDS011;40801;41.924;25.562;2022-07-29T10:44:42;7.95;;;7.55;;
54899;SDS011;40801;41.924;25.562;2022-07-29T10:47:19;6.53;;;6.22;;
54899;SDS011;40801;41.924;25.562;2022-07-29T10:50:21;7.20;;;6.70;;
54899;SDS011;40801;41.924;25.562;2022-07-29T11:00:51;7.47;;;7.07;;
54899;SDS011;40801;41.924;25.562;2022-07-29T11:06:10;8.13;;;7.63;;
54899;SDS011;40801;41.924;25.562;2022-07-29T11:08:36;7.53;;;7.05;;
54899;SDS011;40801;41.924;25.562;2022-07-29T11:13:46;6.88;;;6.57;;
54899;SDS011;40801;41.924;25.562;2022-07-29T11:16:16;8.38;;;7.80;;
54899;SDS011;40801;41.924;25.562;2022-07-29T11:19:28;7.90;;;7.43;;
54899;SDS011;40801;41.924;25.562;2022-07-29T11:21:41;7.72;;;7.22;;
54899;SDS011;40801;41.924;25.562;2022-07-29T11:24:12;12.80;;;12.10;;
54899;SDS011;40801;41.924;25.562;2022-07-29T11:26:38;7.53;;;7.22;;
54899;SDS011;40801;41.924;25.562;2022-07-29T11:29:19;7.22;;;6.78;;
54899;SDS011;40801;41.924;25.562;2022-07-29T11:31:48;8.35;;;7.95;;
54899;SDS011;40801;41.924;25.562;2022-07-29T11:47:41;6.68;;;6.18;;
54899;SDS011;40801;41.924;25.562;2022-07-29T11:50:17;6.43;;;6.05;;
54899;SDS011;40801;41.924;25.562;2022-07-29T11:52:52;7.93;;;7.43;;
54899;SDS011;40801;41.924;25.562;2022-07-29T11:55:19;7.20;;;6.88;;
54899;SDS011;40801;41.924;25.562;2022-07-29T11:57:48;7.45;;;7.05;;
54899;SDS011;40801;41.924;25.562;2022-07-29T12:02:49;7.03;;;6.72;;
54899;SDS011;40801;41.924;25.562;2022-07-29T12:05:14;7.70;;;7.30;;
54899;SDS011;40801;41.924;25.562;2022-07-29T12:07:40;7.00;;;6.60;;
54899;SDS011;40801;41.924;25.562;2022-07-29T12:10:06;6.53;;;6.15;;
54899;SDS011;40801;41.924;25.562;2022-07-29T12:12:33;7.35;;;6.70;;
54899;SDS011;40801;41.924;25.562;2022-07-29T12:15:21;7.15;;;6.75;;
54899;SDS011;40801;41.924;25.562;2022-07-29T12:17:46;6.63;;;6.32;;
54899;SDS011;40801;41.924;25.562;2022-07-29T12:20:13;7.95;;;7.35;;
54899;SDS011;40801;41.924;25.562;2022-07-29T12:22:46;7.90;;;7.32;;
54899;SDS011;40801;41.924;25.562;2022-07-29T12:25:13;7.07;;;6.57;;
54899;SDS011;40801;41.924;25.562;2022-07-29T12:27:42;6.65;;;6.22;;
54899;SDS011;40801;41.924;25.562;2022-07-29T12:30:14;7.28;;;6.53;;
54899;SDS011;40801;41.924;25.562;2022-07-29T12:32:47;8.27;;;7.88;;
54899;SDS011;40801;41.924;25.562;2022-07-29T12:35:19;7.45;;;6.78;;
54899;SDS011;40801;41.924;25.562;2022-07-29T12:37:46;8.13;;;7.65;;
54899;SDS011;40801;41.924;25.562;2022-07-29T12:40:13;7.65;;;7.18;;
54899;SDS011;40801;41.924;25.562;2022-07-29T12:42:41;6.28;;;5.97;;
54899;SDS011;40801;41.924;25.562;2022-07-29T12:45:34;7.95;;;7.40;;
54899;SDS011;40801;41.924;25.562;2022-07-29T12:48:00;7.22;;;6.82;;
54899;SDS011;40801;41.924;25.562;2022-07-29T12:50:26;5.30;;;5.00;;
54899;SDS011;40801;41.924;25.562;2022-07-29T12:52:51;8.55;;;7.90;;
54899;SDS011;40801;41.924;25.562;2022-07-29T12:58:10;5.63;;;5.32;;
54899;SDS011;40801;41.924;25.562;2022-07-29T13:00:35;6.85;;;6.35;;
54899;SDS011;40801;41.924;25.562;2022-07-29T13:03:01;6.65;;;6.35;;
54899;SDS011;40801;41.924;25.562;2022-07-29T13:05:43;6.85;;;6.45;;
54899;SDS011;40801;41.924;25.562;2022-07-29T13:08:13;4.88;;;4.57;;
54899;SDS011;40801;41.924;25.562;2022-07-29T13:10:41;5.97;;;5.68;;
54899;SDS011;40801;41.924;25.562;2022-07-29T13:13:11;6.57;;;6.28;;
54899;SDS011;40801;41.924;25.562;2022-07-29T13:15:39;7.78;;;7.35;;
54899;SDS011;40801;41.924;25.562;2022-07-29T13:18:25;7.63;;;7.15;;
54899;SDS011;40801;41.924;25.562;2022-07-29T13:20:52;6.68;;;6.38;;
54899;SDS011;40801;41.924;25.562;2022-07-29T13:23:17;7.45;;;7.15;;
54899;SDS011;40801;41.924;25.562;2022-07-29T13:25:43;6.78;;;6.47;;
54899;SDS011;40801;41.924;25.562;2022-07-29T13:28:08;6.18;;;5.85;;
54899;SDS011;40801;41.924;25.562;2022-07-29T13:30:34;6.97;;;6.68;;
54899;SDS011;40801;41.924;25.562;2022-07-29T13:32:59;7.25;;;6.78;;
54899;SDS011;40801;41.924;25.562;2022-07-29T13:35:25;8.25;;;7.78;;
54899;SDS011;40801;41.924;25.562;2022-07-29T13:37:50;6.97;;;6.47;;
54899;SDS011;40801;41.924;25.562;2022-07-29T13:40:16;6.75;;;6.38;;
54899;SDS011;40801;41.924;25.562;2022-07-29T13:42:41;7.60;;;6.93;;
54899;SDS011;40801;41.924;25.562;2022-07-29T13:45:07;7.80;;;7.20;;
54899;SDS011;40801;41.924;25.562;2022-07-29T13:47:34;6.70;;;6.20;;
54899;SDS011;40801;41.924;25.562;2022-07-29T13:50:00;6.97;;;6.57;;
54899;SDS011;40801;41.924;25.562;2022-07-29T13:52:26;7.90;;;7.27;;
54899;SDS011;40801;41.924;25.562;2022-07-29T13:54:52;7.53;;;6.93;;
54899;SDS011;40801;41.924;25.562;2022-07-29T13:57:17;5.60;;;5.30;;
54899;SDS011;40801;41.924;25.562;2022-07-29T13:59:43;6.63;;;6.22;;
54899;SDS011;40801;41.924;25.562;2022-07-29T14:02:09;5.80;;;5.47;;
54899;SDS011;40801;41.924;25.562;2022-07-29T14:04:35;7.20;;;6.90;;
54899;SDS011;40801;41.924;25.562;2022-07-29T14:07:01;5.93;;;5.60;;
54899;SDS011;40801;41.924;25.562;2022-07-29T14:09:27;5.45;;;5.15;;
54899;SDS011;40801;41.924;25.562;2022-07-29T14:11:52;6.13;;;5.72;;
54899;SDS011;40801;41.924;25.562;2022-07-29T14:14:18;7.53;;;7.22;;
54899;SDS011;40801;41.924;25.562;2022-07-29T14:16:44;6.65;;;6.25;;
54899;SDS011;40801;41.924;25.562;2022-07-29T14:19:09;7.28;;;6.60;;
54899;SDS011;40801;41.924;25.562;2022-07-29T14:21:36;6.72;;;6.30;;
54899;SDS011;40801;41.924;25.562;2022-07-29T14:24:02;7.40;;;6.97;;
54899;SDS011;40801;41.924;25.562;2022-07-29T14:26:28;5.60;;;5.30;;
54899;SDS011;40801;41.924;25.562;2022-07-29T14:28:53;6.68;;;6.18;;
54899;SDS011;40801;41.924;25.562;2022-07-29T14:31:18;6.50;;;6.20;;
54899;SDS011;40801;41.924;25.562;2022-07-29T14:33:44;6.28;;;5.88;;
54899;SDS011;40801;41.924;25.562;2022-07-29T14:36:09;6.70;;;6.15;;
54899;SDS011;40801;41.924;25.562;2022-07-29T14:38:35;7.28;;;6.68;;
54899;SDS011;40801;41.924;25.562;2022-07-29T14:41:02;5.37;;;5.03;;
54899;SDS011;40801;41.924;25.562;2022-07-29T14:43:28;6.68;;;5.88;;
54899;SDS011;40801;41.924;25.562;2022-07-29T14:45:53;7.95;;;7.55;;
54899;SDS011;40801;41.924;25.562;2022-07-29T14:48:18;7.93;;;7.25;;
54899;SDS011;40801;41.924;25.562;2022-07-29T14:50:44;6.10;;;5.78;;
54899;SDS011;40801;41.924;25.562;2022-07-29T14:53:09;9.00;;;8.25;;
54899;SDS011;40801;41.924;25.562;2022-07-29T14:55:37;5.63;;;5.23;;
54899;SDS011;40801;41.924;25.562;2022-07-29T14:58:02;7.50;;;6.97;;
54899;SDS011;40801;41.924;25.562;2022-07-29T15:00:28;7.47;;;7.07;;
54899;SDS011;40801;41.924;25.562;2022-07-29T15:02:57;7.47;;;7.10;;
54899;SDS011;40801;41.924;25.562;2022-07-29T15:05:23;7.28;;;6.88;;
54899;SDS011;40801;41.924;25.562;2022-07-29T15:07:48;7.60;;;7.20;;
54899;SDS011;40801;41.924;25.562;2022-07-29T15:10:14;7.53;;;7.03;;
54899;SDS011;40801;41.924;25.562;2022-07-29T15:12:39;7.80;;;7.10;;
54899;SDS011;40801;41.924;25.562;2022-07-29T15:15:05;7.78;;;7.28;;
54899;SDS011;40801;41.924;25.562;2022-07-29T15:17:32;7.82;;;7.40;;
54899;SDS011;40801;41.924;25.562;2022-07-29T15:19:57;7.80;;;7.13;;
54899;SDS011;40801;41.924;25.562;2022-07-29T15:22:23;8.63;;;8.13;;
54899;SDS011;40801;41.924;25.562;2022-07-29T15:24:48;6.25;;;5.95;;